createdAt,value
2019-01-13T00:01:42.891Z,6.30
2019-01-13T00:04:28.011Z,6.30
2019-01-13T00:07:12.874Z,6.30
2019-01-13T00:09:58.140Z,6.30
2019-01-13T00:12:42.787Z,6.20
2019-01-13T00:15:27.589Z,6.20
2019-01-13T00:18:12.695Z,6.20
2019-01-13T00:20:57.646Z,6.20
2019-01-13T00:23:42.676Z,6.30
2019-01-13T00:26:27.643Z,6.30
2019-01-13T00:29:12.679Z,6.20
2019-01-13T00:31:57.805Z,6.20
2019-01-13T00:34:42.894Z,6.20
2019-01-13T00:37:28.054Z,6.20
2019-01-13T00:40:15.933Z,6.30
2019-01-13T00:43:00.968Z,6.20
2019-01-13T00:45:45.911Z,6.20
2019-01-13T00:48:30.566Z,6.20
2019-01-13T00:51:15.351Z,6.20
2019-01-13T00:54:00.464Z,6.20
2019-01-13T00:56:45.639Z,6.30
2019-01-13T00:59:30.632Z,6.30
2019-01-13T01:02:15.759Z,6.30
2019-01-13T01:05:00.281Z,6.30
2019-01-13T01:07:47.131Z,6.40
2019-01-13T01:10:32.050Z,6.40
2019-01-13T01:13:17.024Z,6.40
2019-01-13T01:16:02.375Z,6.40
2019-01-13T01:18:47.287Z,6.40
2019-01-13T01:21:32.275Z,6.50
2019-01-13T01:24:17.248Z,6.40
2019-01-13T01:27:02.556Z,6.40
2019-01-13T01:29:47.382Z,6.40
2019-01-13T01:32:32.018Z,6.40
2019-01-13T01:35:16.676Z,6.40
2019-01-13T01:38:01.408Z,6.40
2019-01-13T01:40:46.441Z,6.40
2019-01-13T01:43:31.371Z,6.40
2019-01-13T01:46:15.954Z,6.40
2019-01-13T01:49:00.960Z,6.40
2019-01-13T01:51:46.066Z,6.40
2019-01-13T01:54:31.343Z,6.40
2019-01-13T01:57:16.197Z,6.40
2019-01-13T02:00:00.591Z,6.40
2019-01-13T02:02:45.706Z,6.30
2019-01-13T02:05:30.341Z,6.30
2019-01-13T02:08:15.359Z,6.30
2019-01-13T02:11:00.066Z,6.30
2019-01-13T02:13:44.981Z,6.30
2019-01-13T02:16:29.808Z,6.40
2019-01-13T02:19:14.684Z,6.40
2019-01-13T02:21:59.371Z,6.40
2019-01-13T02:24:44.389Z,6.40
2019-01-13T02:27:29.535Z,6.40
2019-01-13T02:30:17.221Z,6.40
2019-01-13T02:33:02.056Z,6.40
2019-01-13T02:35:46.835Z,6.30
2019-01-13T02:38:31.775Z,6.40
2019-01-13T02:41:17.090Z,6.40
2019-01-13T02:44:02.164Z,6.40
2019-01-13T02:46:47.271Z,6.40
2019-01-13T02:49:32.288Z,6.40
2019-01-13T02:52:17.303Z,6.40
2019-01-13T02:55:03.875Z,6.30
2019-01-13T02:57:48.977Z,6.40
2019-01-13T03:00:33.829Z,6.40
2019-01-13T03:03:18.593Z,6.40
2019-01-13T03:06:03.324Z,6.40
2019-01-13T03:08:48.069Z,6.40
2019-01-13T03:11:32.733Z,6.40
2019-01-13T03:14:17.793Z,6.40
2019-01-13T03:17:02.589Z,6.40
2019-01-13T03:19:47.696Z,6.40
2019-01-13T03:22:32.581Z,6.40
2019-01-13T03:25:18.951Z,6.40
2019-01-13T03:28:03.838Z,6.40
2019-01-13T03:30:48.854Z,6.40
2019-01-13T03:33:33.899Z,6.40
2019-01-13T03:36:18.905Z,6.40
2019-01-13T03:39:06.185Z,6.40
2019-01-13T03:41:51.425Z,6.40
2019-01-13T03:44:36.391Z,6.40
2019-01-13T03:47:21.015Z,6.40
2019-01-13T03:50:09.325Z,6.40
2019-01-13T03:52:54.398Z,6.30
2019-01-13T03:55:39.270Z,6.40
2019-01-13T03:58:23.848Z,6.40
2019-01-13T04:01:08.494Z,6.40
2019-01-13T04:03:53.526Z,6.50
2019-01-13T04:06:38.225Z,6.50
2019-01-13T04:09:22.761Z,6.50
2019-01-13T04:12:07.941Z,6.50
2019-01-13T04:14:52.930Z,6.50
2019-01-13T04:17:37.668Z,6.50
2019-01-13T04:20:22.755Z,6.60
2019-01-13T04:23:07.513Z,6.60
2019-01-13T04:25:52.442Z,6.60
2019-01-13T04:28:37.560Z,6.50
2019-01-13T04:31:26.871Z,6.60
2019-01-13T04:34:09.130Z,6.60
2019-01-13T04:36:54.123Z,6.60
2019-01-13T04:39:39.344Z,6.70
2019-01-13T04:42:24.438Z,6.70
2019-01-13T04:45:09.165Z,6.70
2019-01-13T04:47:53.891Z,6.80
2019-01-13T04:50:39.100Z,6.80
2019-01-13T04:53:24.266Z,6.80
2019-01-13T04:56:08.869Z,6.90
2019-01-13T04:58:53.516Z,6.90
2019-01-13T05:01:38.080Z,6.80
2019-01-13T05:04:22.810Z,6.80
2019-01-13T05:07:07.838Z,6.90
2019-01-13T05:09:52.443Z,6.90
2019-01-13T05:12:37.450Z,6.90
2019-01-13T05:15:22.114Z,7.00
2019-01-13T05:18:07.029Z,7.00
2019-01-13T05:20:51.838Z,7.00
2019-01-13T05:23:36.610Z,7.00
2019-01-13T05:26:21.436Z,7.00
2019-01-13T05:29:06.392Z,7.00
2019-01-13T05:31:51.221Z,7.00
2019-01-13T05:34:36.174Z,7.00
2019-01-13T05:37:21.437Z,7.00
2019-01-13T05:40:09.984Z,7.00
2019-01-13T05:42:54.868Z,7.10
2019-01-13T05:45:39.789Z,7.10
2019-01-13T05:48:24.458Z,7.10
2019-01-13T05:51:09.058Z,7.00
2019-01-13T05:53:53.635Z,7.00
2019-01-13T05:56:38.145Z,7.10
2019-01-13T05:59:22.795Z,7.10
2019-01-13T06:02:07.230Z,7.00
2019-01-13T06:04:52.435Z,7.00
2019-01-13T06:07:36.880Z,7.00
2019-01-13T06:10:21.556Z,7.00
2019-01-13T06:13:06.384Z,7.10
2019-01-13T06:15:51.524Z,7.10
2019-01-13T06:18:36.555Z,7.10
2019-01-13T06:21:21.018Z,7.10
2019-01-13T06:24:05.562Z,7.10
2019-01-13T06:26:50.615Z,7.00
2019-01-13T06:29:35.655Z,7.00
2019-01-13T06:32:20.262Z,7.00
2019-01-13T06:35:05.512Z,7.00
2019-01-13T06:37:50.503Z,6.90
2019-01-13T06:40:35.143Z,6.90
2019-01-13T06:43:20.140Z,6.90
2019-01-13T06:46:04.596Z,6.90
2019-01-13T06:48:49.143Z,6.80
2019-01-13T06:51:33.734Z,6.80
2019-01-13T06:54:18.899Z,6.90
2019-01-13T06:57:04.052Z,6.80
2019-01-13T06:59:49.284Z,6.80
2019-01-13T07:02:34.529Z,6.90
2019-01-13T07:05:19.715Z,6.80
2019-01-13T07:08:04.554Z,6.90
2019-01-13T07:10:49.617Z,6.90
2019-01-13T07:13:34.415Z,6.80
2019-01-13T07:16:19.408Z,6.90
2019-01-13T07:19:04.451Z,6.80
2019-01-13T07:21:50.533Z,6.90
2019-01-13T07:24:36.053Z,6.90
2019-01-13T07:27:20.858Z,6.80
2019-01-13T07:30:14.367Z,6.90
2019-01-13T07:32:58.977Z,6.90
2019-01-13T07:35:43.733Z,6.90
2019-01-13T07:38:28.756Z,6.90
2019-01-13T07:41:13.620Z,6.90
2019-01-13T07:43:58.628Z,6.90
2019-01-13T07:46:43.397Z,6.90
2019-01-13T07:49:28.280Z,6.90
2019-01-13T07:52:12.903Z,6.90
2019-01-13T07:54:57.973Z,7.00
2019-01-13T07:57:42.653Z,6.90
2019-01-13T08:00:28.732Z,7.00
2019-01-13T08:03:13.528Z,6.90
2019-01-13T08:05:58.730Z,7.00
2019-01-13T08:08:43.860Z,7.00
2019-01-13T08:11:28.602Z,7.00
2019-01-13T08:14:13.626Z,7.00
2019-01-13T08:16:58.244Z,7.00
2019-01-13T08:19:43.235Z,7.00
2019-01-13T08:22:28.193Z,7.10
2019-01-13T08:25:12.874Z,7.10
2019-01-13T08:27:57.374Z,7.10
2019-01-13T08:30:42.549Z,7.10
2019-01-13T08:33:27.497Z,7.10
2019-01-13T08:36:12.203Z,7.10
2019-01-13T08:38:57.150Z,7.20
2019-01-13T08:41:42.119Z,7.10
2019-01-13T08:44:26.811Z,7.10
2019-01-13T08:47:11.685Z,7.20
2019-01-13T08:49:56.380Z,7.20
2019-01-13T08:52:41.323Z,7.20
2019-01-13T08:55:26.469Z,7.30
2019-01-13T08:58:11.282Z,7.30
2019-01-13T09:00:55.995Z,7.30
2019-01-13T09:03:40.478Z,7.40
2019-01-13T09:06:25.154Z,7.40
2019-01-13T09:09:10.088Z,7.40
2019-01-13T09:11:55.270Z,7.40
2019-01-13T09:14:40.313Z,7.40
2019-01-13T09:17:25.342Z,7.50
2019-01-13T09:20:18.396Z,7.50
2019-01-13T09:23:03.836Z,7.40
2019-01-13T09:25:48.848Z,7.50
2019-01-13T09:28:34.127Z,7.50
2019-01-13T09:31:19.091Z,7.50
2019-01-13T09:34:04.011Z,7.50
2019-01-13T09:36:48.899Z,7.50
2019-01-13T09:39:33.309Z,7.60
2019-01-13T09:42:18.090Z,7.60
2019-01-13T09:45:06.758Z,7.60
2019-01-13T09:47:51.924Z,7.60
2019-01-13T09:50:36.851Z,7.60
2019-01-13T09:53:21.930Z,7.60
2019-01-13T09:56:07.068Z,7.70
2019-01-13T09:58:52.477Z,7.70
2019-01-13T10:01:37.174Z,7.70
2019-01-13T10:04:22.105Z,7.70
2019-01-13T10:07:06.804Z,7.80
2019-01-13T10:09:52.167Z,7.80
2019-01-13T10:12:37.330Z,7.80
2019-01-13T10:15:26.369Z,7.80
2019-01-13T10:18:11.723Z,7.80
2019-01-13T10:20:56.820Z,7.90
2019-01-13T10:23:42.084Z,7.90
2019-01-13T10:26:26.744Z,7.90
2019-01-13T10:29:11.573Z,7.90
2019-01-13T10:31:56.514Z,8.00
2019-01-13T10:34:41.803Z,8.00
2019-01-13T10:37:27.126Z,8.10
2019-01-13T10:40:15.039Z,8.10
2019-01-13T10:43:00.524Z,8.10
2019-01-13T10:45:45.227Z,8.10
2019-01-13T10:48:30.492Z,8.10
2019-01-13T10:51:15.454Z,8.20
2019-01-13T10:54:00.539Z,8.20
2019-01-13T10:56:45.555Z,8.20
2019-01-13T10:59:30.562Z,8.20
2019-01-13T11:02:15.882Z,8.20
2019-01-13T11:05:00.769Z,8.30
2019-01-13T11:07:46.260Z,8.30
2019-01-13T11:10:30.918Z,8.30
2019-01-13T11:13:16.100Z,8.30
2019-01-13T11:16:01.109Z,8.30
2019-01-13T11:18:46.013Z,8.30
2019-01-13T11:21:31.254Z,8.30
2019-01-13T11:24:16.373Z,8.40
2019-01-13T11:27:01.378Z,8.30
2019-01-13T11:29:46.581Z,8.40
2019-01-13T11:32:31.778Z,8.40
2019-01-13T11:35:16.789Z,8.40
2019-01-13T11:38:01.861Z,8.40
2019-01-13T11:40:47.055Z,8.40
2019-01-13T11:43:32.068Z,8.40
2019-01-13T11:46:17.152Z,8.40
2019-01-13T11:49:03.249Z,8.50
2019-01-13T11:51:49.245Z,8.40
2019-01-13T11:54:33.938Z,8.40
2019-01-13T11:57:18.847Z,8.50
2019-01-13T12:00:22.402Z,8.50
2019-01-13T12:03:07.323Z,8.50
2019-01-13T12:05:52.234Z,8.40
2019-01-13T12:08:37.105Z,8.50
2019-01-13T12:11:22.020Z,8.50
2019-01-13T12:14:07.521Z,8.50
2019-01-13T12:16:52.279Z,8.50
2019-01-13T12:19:37.874Z,8.50
2019-01-13T12:22:22.642Z,8.50
2019-01-13T12:25:11.262Z,8.50
2019-01-13T12:27:56.488Z,8.60
2019-01-13T12:30:41.469Z,8.50
2019-01-13T12:33:26.035Z,8.50
2019-01-13T12:36:11.176Z,8.50
2019-01-13T12:38:56.264Z,8.50
2019-01-13T12:41:41.302Z,8.50
2019-01-13T12:44:26.286Z,8.50
2019-01-13T12:47:11.454Z,8.50
2019-01-13T12:49:56.423Z,8.50
2019-01-13T12:52:41.390Z,8.40
2019-01-13T12:55:26.634Z,8.30
2019-01-13T12:58:11.613Z,8.30
2019-01-13T13:00:56.761Z,8.40
2019-01-13T13:03:41.803Z,8.30
2019-01-13T13:06:26.855Z,8.30
2019-01-13T13:09:11.932Z,8.30
2019-01-13T13:11:57.096Z,8.40
2019-01-13T13:14:42.051Z,8.40
2019-01-13T13:17:27.239Z,8.40
2019-01-13T13:20:13.962Z,8.40
2019-01-13T13:22:59.127Z,8.40
2019-01-13T13:25:44.058Z,8.30
2019-01-13T13:28:28.865Z,8.40
2019-01-13T13:31:13.711Z,8.40
2019-01-13T13:33:58.675Z,8.30
2019-01-13T13:36:43.829Z,8.40
2019-01-13T13:39:28.710Z,8.40
2019-01-13T13:42:13.962Z,8.30
2019-01-13T13:44:58.937Z,8.40
2019-01-13T13:47:43.587Z,8.30
2019-01-13T13:50:28.697Z,8.30
2019-01-13T13:53:14.017Z,8.30
2019-01-13T13:55:58.891Z,8.30
2019-01-13T13:58:43.914Z,8.30
2019-01-13T14:01:28.965Z,8.30
2019-01-13T14:04:13.558Z,8.30
2019-01-13T14:06:58.581Z,8.30
2019-01-13T14:09:43.774Z,8.30
2019-01-13T14:12:28.624Z,8.30
2019-01-13T14:15:14.372Z,8.30
2019-01-13T14:17:59.618Z,8.30
2019-01-13T14:20:44.526Z,8.30
2019-01-13T14:23:29.724Z,8.20
2019-01-13T14:26:14.804Z,8.30
2019-01-13T14:28:59.758Z,8.30
2019-01-13T14:31:44.818Z,8.30
2019-01-13T14:34:29.858Z,8.30
2019-01-13T14:37:14.444Z,8.30
2019-01-13T14:39:59.464Z,8.40
2019-01-13T14:42:44.280Z,8.50
2019-01-13T14:45:29.243Z,8.50
2019-01-13T14:48:14.029Z,8.50
2019-01-13T14:50:59.511Z,8.50
2019-01-13T14:53:44.483Z,8.50
2019-01-13T14:56:29.299Z,8.50
2019-01-13T14:59:14.677Z,8.40
2019-01-13T15:01:59.572Z,8.50
2019-01-13T15:04:44.948Z,8.40
2019-01-13T15:07:29.842Z,8.40
2019-01-13T15:10:19.912Z,8.40
2019-01-13T15:13:04.946Z,8.40
2019-01-13T15:15:50.036Z,8.40
2019-01-13T15:18:35.286Z,8.40
2019-01-13T15:21:20.724Z,8.40
2019-01-13T15:24:05.287Z,8.40
2019-01-13T15:26:51.006Z,8.30
2019-01-13T15:29:36.337Z,8.40
2019-01-13T15:32:21.604Z,8.30
2019-01-13T15:35:06.590Z,8.30
2019-01-13T15:37:51.939Z,8.20
2019-01-13T15:40:36.739Z,8.20
2019-01-13T15:43:22.289Z,8.20
2019-01-13T15:46:07.670Z,8.30
2019-01-13T15:48:52.878Z,8.20
2019-01-13T15:51:37.716Z,8.20
2019-01-13T15:54:23.287Z,8.20
2019-01-13T15:57:08.236Z,8.20
2019-01-13T15:59:53.321Z,8.20
2019-01-13T16:02:38.392Z,8.20
2019-01-13T16:05:24.078Z,8.20
2019-01-13T16:08:09.578Z,8.20
2019-01-13T16:10:54.553Z,8.20
2019-01-13T16:13:39.924Z,8.20
2019-01-13T16:16:24.880Z,8.20
2019-01-13T16:19:10.156Z,8.20
2019-01-13T16:21:55.097Z,8.20
2019-01-13T16:24:40.517Z,8.20
2019-01-13T16:27:25.647Z,8.20
2019-01-13T16:30:14.498Z,8.20
2019-01-13T16:32:59.486Z,8.10
2019-01-13T16:35:44.634Z,8.20
2019-01-13T16:38:29.668Z,8.20
2019-01-13T16:41:14.905Z,8.10
2019-01-13T16:44:00.125Z,8.10
2019-01-13T16:46:45.350Z,8.10
2019-01-13T16:49:30.092Z,8.10
2019-01-13T16:52:15.439Z,8.00
2019-01-13T16:55:00.652Z,8.10
2019-01-13T16:57:45.770Z,8.00
2019-01-13T17:00:30.922Z,8.00
2019-01-13T17:03:15.935Z,8.00
2019-01-13T17:06:00.792Z,8.00
2019-01-13T17:08:45.842Z,8.00
2019-01-13T17:11:31.520Z,8.00
2019-01-13T17:14:16.380Z,7.90
2019-01-13T17:17:01.248Z,7.90
2019-01-13T17:19:46.332Z,7.90
2019-01-13T17:22:31.560Z,7.90
2019-01-13T17:25:19.272Z,7.90
2019-01-13T17:28:04.163Z,7.90
2019-01-13T17:30:49.313Z,7.90
2019-01-13T17:33:34.296Z,7.90
2019-01-13T17:36:19.482Z,7.80
2019-01-13T17:39:07.102Z,7.80
2019-01-13T17:41:52.193Z,7.80
2019-01-13T17:44:37.344Z,7.80
2019-01-13T17:47:22.612Z,7.80
2019-01-13T17:50:11.121Z,7.70
2019-01-13T17:52:56.612Z,7.60
2019-01-13T17:55:41.781Z,7.40
2019-01-13T17:58:26.826Z,7.40
2019-01-13T18:01:13.512Z,7.40
2019-01-13T18:03:58.884Z,7.40
2019-01-13T18:06:44.133Z,7.40
2019-01-13T18:09:29.420Z,7.40
2019-01-13T18:12:14.531Z,7.50
2019-01-13T18:14:59.660Z,7.50
2019-01-13T18:17:44.635Z,7.40
2019-01-13T18:20:29.967Z,7.40
2019-01-13T18:23:15.069Z,7.30
2019-01-13T18:26:00.374Z,7.40
2019-01-13T18:28:45.316Z,7.40
2019-01-13T18:31:30.464Z,7.40
2019-01-13T18:34:15.735Z,7.40
2019-01-13T18:37:00.567Z,7.40
2019-01-13T18:39:45.727Z,7.30
2019-01-13T18:42:30.815Z,7.30
2019-01-13T18:45:16.267Z,7.30
2019-01-13T18:48:01.381Z,7.30
2019-01-13T18:50:46.324Z,7.20
2019-01-13T18:53:31.345Z,7.10
2019-01-13T18:56:16.753Z,7.00
2019-01-13T18:59:01.844Z,6.70
2019-01-13T19:01:46.898Z,6.40
2019-01-13T19:04:31.916Z,6.20
2019-01-13T19:07:16.731Z,6.00
2019-01-13T19:10:14.391Z,5.80
2019-01-13T19:13:25.775Z,5.80
2019-01-13T19:16:14.518Z,5.70
2019-01-13T19:18:59.694Z,5.60
2019-01-13T19:21:45.070Z,5.60
2019-01-13T19:24:29.965Z,5.60
2019-01-13T19:27:15.353Z,5.60
2019-01-13T19:30:00.379Z,5.60
2019-01-13T19:32:45.402Z,5.60
2019-01-13T19:35:31.087Z,5.70
2019-01-13T19:38:16.196Z,5.60
2019-01-13T19:41:01.394Z,5.60
2019-01-13T19:43:46.456Z,5.50
2019-01-13T19:46:31.313Z,5.60
2019-01-13T19:49:16.091Z,5.60
2019-01-13T19:52:01.153Z,5.70
2019-01-13T19:54:46.434Z,5.80
2019-01-13T19:57:31.312Z,5.90
2019-01-13T20:00:28.656Z,6.00
2019-01-13T20:03:13.743Z,6.10
2019-01-13T20:05:58.745Z,6.30
2019-01-13T20:08:43.690Z,6.50
2019-01-13T20:11:28.823Z,6.70
2019-01-13T20:14:14.038Z,6.80
2019-01-13T20:16:59.166Z,6.80
2019-01-13T20:19:44.028Z,6.70
2019-01-13T20:22:29.252Z,6.60
2019-01-13T20:25:16.240Z,6.50
2019-01-13T20:28:01.420Z,6.30
2019-01-13T20:30:46.707Z,6.20
2019-01-13T20:33:32.215Z,6.10
2019-01-13T20:36:17.464Z,5.90
2019-01-13T20:39:07.357Z,5.80
2019-01-13T20:41:52.622Z,5.70
2019-01-13T20:44:37.639Z,5.60
2019-01-13T20:47:22.762Z,5.50
2019-01-13T20:50:10.635Z,5.40
2019-01-13T20:52:55.392Z,5.30
2019-01-13T20:55:40.561Z,5.30
2019-01-13T20:58:25.421Z,5.30
2019-01-13T21:01:10.785Z,5.30
2019-01-13T21:03:55.886Z,5.20
2019-01-13T21:06:41.195Z,5.20
2019-01-13T21:09:26.002Z,5.20
2019-01-13T21:12:11.197Z,5.30
2019-01-13T21:14:58.056Z,5.30
2019-01-13T21:17:43.300Z,5.30
2019-01-13T21:20:28.278Z,5.40
2019-01-13T21:23:13.348Z,5.40
2019-01-13T21:25:58.543Z,5.40
2019-01-13T21:28:43.585Z,5.40
2019-01-13T21:31:28.560Z,5.40
2019-01-13T21:34:13.568Z,5.40
2019-01-13T21:36:58.674Z,5.40
2019-01-13T21:39:43.680Z,5.50
2019-01-13T21:42:28.768Z,5.50
2019-01-13T21:45:16.701Z,5.60
2019-01-13T21:48:01.352Z,5.60
2019-01-13T21:50:45.845Z,5.60
2019-01-13T21:53:31.047Z,5.60
2019-01-13T21:56:16.349Z,5.60
2019-01-13T21:59:01.462Z,5.60
2019-01-13T22:01:46.613Z,5.70
2019-01-13T22:04:31.750Z,5.80
2019-01-13T22:07:16.667Z,5.80
2019-01-13T22:10:01.619Z,5.80
2019-01-13T22:12:46.720Z,5.80
2019-01-13T22:15:31.743Z,5.90
2019-01-13T22:18:16.801Z,5.90
2019-01-13T22:21:01.977Z,5.90
2019-01-13T22:23:47.061Z,5.90
2019-01-13T22:26:32.123Z,5.90
2019-01-13T22:29:17.236Z,6.00
2019-01-13T22:32:02.044Z,6.00
2019-01-13T22:34:46.821Z,6.10
2019-01-13T22:37:31.911Z,6.20
2019-01-13T22:40:17.630Z,6.20
2019-01-13T22:43:02.690Z,6.20
2019-01-13T22:45:47.665Z,6.20
2019-01-13T22:48:32.615Z,6.30
2019-01-13T22:51:17.271Z,6.30
2019-01-13T22:54:02.284Z,6.30
2019-01-13T22:56:47.261Z,6.40
2019-01-13T22:59:32.354Z,6.40
2019-01-13T23:02:17.539Z,6.40
2019-01-13T23:05:03.478Z,6.40
2019-01-13T23:07:48.404Z,6.40
2019-01-13T23:10:33.145Z,6.50
2019-01-13T23:13:18.211Z,6.40
2019-01-13T23:16:03.569Z,6.50
2019-01-13T23:18:48.367Z,6.40
2019-01-13T23:21:33.650Z,6.50
2019-01-13T23:24:18.404Z,6.50
2019-01-13T23:27:03.436Z,6.50
2019-01-13T23:29:48.175Z,6.50
2019-01-13T23:32:32.956Z,6.50
2019-01-13T23:35:17.776Z,6.40
2019-01-13T23:38:03.040Z,6.40
2019-01-13T23:40:48.112Z,6.30
2019-01-13T23:43:33.271Z,6.30
2019-01-13T23:46:18.182Z,6.30
2019-01-13T23:49:03.707Z,6.20
2019-01-13T23:51:48.479Z,6.20
2019-01-13T23:54:33.479Z,6.30
2019-01-13T23:57:18.342Z,6.40
